Time;durP1;ratioP1;P1;durP2;ratioP2;P2;SDS_P1;SDS_P2;PMS_P1;PMS_P2;Temp;Humidity;BMP_temperature;BMP_pressure;BME280_temperature;BME280_humidity;BME280_pressure;Samples;Min_cycle;Max_cycle;Signal;HPM_P1;HPM_P2
2021/12/28 00:01:16;;;;;;;7.65;5.03;;;;;;;-6.44;69.02;100071.97;4840435;29;20329;-62
2021/12/28 00:03:43;;;;;;;9.55;5.30;;;;;;;-6.07;67.70;100136.91;4872205;29;20073;-62
2021/12/28 00:06:11;;;;;;;5.57;4.10;;;;;;;-6.07;67.54;100134.41;4870207;29;20080;-62
2021/12/28 00:08:37;;;;;;;5.88;4.35;;;;;;;-6.14;67.87;100127.31;4870203;29;20029;-62
2021/12/28 00:11:04;;;;;;;7.53;5.40;;;;;;;-6.18;68.12;100121.25;4855806;29;20029;-61
2021/12/28 00:13:32;;;;;;;7.13;4.72;;;;;;;-6.04;67.46;100146.31;4870481;29;20086;-62
2021/12/28 00:16:13;;;;;;;7.50;5.25;;;;;;;-6.05;68.81;100140.41;4854597;29;20022;-62
2021/12/28 00:18:39;;;;;;;7.60;4.93;;;;;;;-5.98;67.80;100147.50;4856129;29;20049;-63
2021/12/28 00:21:06;;;;;;;8.15;5.07;;;;;;;-5.98;66.89;100141.59;4870373;29;20081;-62
2021/12/28 00:23:39;;;;;;;6.97;4.82;;;;;;;-6.02;67.97;100119.53;4870351;29;20037;-62
2021/12/28 00:26:11;;;;;;;10.50;5.75;;;;;;;-6.23;67.90;100084.84;4870598;29;20056;-61
2021/12/28 00:28:37;;;;;;;8.75;5.00;;;;;;;-5.92;67.71;100142.72;4853544;29;20057;-62
2021/12/28 00:31:03;;;;;;;7.47;5.10;;;;;;;-5.99;65.80;100138.19;4859731;29;20034;-61
2021/12/28 00:33:28;;;;;;;8.35;5.05;;;;;;;-6.01;68.06;100137.25;4865945;29;20044;-61
2021/12/28 00:35:54;;;;;;;9.00;5.13;;;;;;;-5.95;66.34;100142.56;4871003;29;20049;-62
2021/12/28 00:38:25;;;;;;;8.82;5.63;;;;;;;-5.93;67.32;100135.09;4855359;29;20032;-61
2021/12/28 00:40:54;;;;;;;6.80;4.50;;;;;;;-5.95;66.02;100155.19;4870607;29;20125;-61
2021/12/28 00:43:20;;;;;;;7.30;4.95;;;;;;;-5.83;66.81;100144.84;4869795;29;20029;-60
2021/12/28 00:45:47;;;;;;;8.63;4.88;;;;;;;-5.84;66.24;100145.66;4869707;29;20041;-61
2021/12/28 00:48:13;;;;;;;8.13;5.07;;;;;;;-5.95;65.71;100139.19;4853213;29;20309;-62
2021/12/28 00:50:39;;;;;;;7.80;4.90;;;;;;;-5.85;66.75;100146.44;4870798;29;20060;-63
2021/12/28 00:53:05;;;;;;;8.35;5.50;;;;;;;-6.01;66.32;100137.25;4869665;29;20041;-62
2021/12/28 00:55:31;;;;;;;7.85;5.05;;;;;;;-6.00;66.82;100141.53;4854831;29;20037;-62
2021/12/28 00:57:57;;;;;;;6.63;4.65;;;;;;;-5.93;66.94;100140.13;4860146;29;20056;-62
2021/12/28 01:00:26;;;;;;;9.48;5.03;;;;;;;-5.99;65.28;100144.91;4864699;29;20069;-63
2021/12/28 01:02:52;;;;;;;8.23;4.68;;;;;;;-6.09;65.48;100149.44;4869401;29;20225;-62
2021/12/28 01:05:18;;;;;;;8.38;5.07;;;;;;;-6.02;65.60;100139.69;4870324;29;20074;-63
2021/12/28 01:07:44;;;;;;;6.30;4.40;;;;;;;-5.96;64.86;100145.03;4854933;29;20089;-63
2021/12/28 01:10:14;;;;;;;6.60;4.45;;;;;;;-6.33;64.68;100087.69;4869949;29;20036;-63
2021/12/28 01:12:40;;;;;;;6.47;4.55;;;;;;;-5.91;66.01;100149.53;4867821;29;20030;-62
2021/12/28 01:15:08;;;;;;;7.97;5.00;;;;;;;-5.98;66.15;100179.41;4869043;29;20622;-63
2021/12/28 01:17:35;;;;;;;6.75;4.90;;;;;;;-6.27;66.87;100088.88;4870370;29;20052;-62
2021/12/28 01:20:02;;;;;;;5.78;4.65;;;;;;;-5.91;64.42;100148.66;4869201;29;20025;-62
2021/12/28 01:22:29;;;;;;;8.00;4.65;;;;;;;-5.86;65.65;100161.50;4870337;29;20029;-63
2021/12/28 01:24:54;;;;;;;7.30;4.90;;;;;;;-5.81;66.06;100166.00;4854399;29;20021;-63
2021/12/28 01:27:20;;;;;;;7.72;4.47;;;;;;;-5.85;66.49;100158.19;4862205;29;20026;-62
2021/12/28 01:29:46;;;;;;;6.68;4.50;;;;;;;-5.94;64.84;100167.00;4862803;29;20040;-61
2021/12/28 01:32:13;;;;;;;6.72;4.88;;;;;;;-5.91;66.73;100166.31;4869912;29;20028;-60
2021/12/28 01:34:39;;;;;;;7.05;4.85;;;;;;;-6.00;66.26;100154.13;4868629;29;20029;-60
2021/12/28 01:37:05;;;;;;;8.95;4.20;;;;;;;-5.93;63.88;100165.34;4869059;29;20234;-59
2021/12/28 01:39:30;;;;;;;6.30;4.30;;;;;;;-6.02;66.00;100167.44;4852959;29;20066;-60
2021/12/28 01:41:56;;;;;;;5.22;3.92;;;;;;;-6.04;65.33;100179.06;4870236;29;20065;-62
2021/12/28 01:44:22;;;;;;;5.65;4.05;;;;;;;-5.97;65.84;100178.59;4869878;29;20041;-62
2021/12/28 01:46:48;;;;;;;6.32;4.00;;;;;;;-6.07;64.43;100187.34;4869830;29;20109;-61
2021/12/28 01:49:14;;;;;;;4.45;3.70;;;;;;;-6.40;65.84;100172.13;4869896;29;20029;-61
2021/12/28 01:51:39;;;;;;;5.38;3.67;;;;;;;-6.43;67.41;100187.09;4869623;29;20042;-63
2021/12/28 01:54:06;;;;;;;5.03;3.75;;;;;;;-6.33;66.63;100198.53;4869722;29;20048;-61
2021/12/28 01:56:40;;;;;;;5.57;3.40;;;;;;;-6.43;66.22;100208.13;4869966;29;20044;-62
2021/12/28 01:59:08;;;;;;;5.00;3.78;;;;;;;-6.27;66.42;100183.75;4868740;29;20025;-62
2021/12/28 02:01:34;;;;;;;7.25;4.10;;;;;;;-6.26;65.93;100196.44;4868836;29;20214;-61
2021/12/28 02:04:01;;;;;;;4.43;3.75;;;;;;;-6.56;65.55;100188.06;4868785;29;20034;-61
2021/12/28 02:06:28;;;;;;;6.63;4.38;;;;;;;-6.34;66.11;100191.75;4869575;29;20309;-61
2021/12/28 02:08:54;;;;;;;8.65;4.30;;;;;;;-6.25;67.32;100202.34;4869513;29;20057;-62
2021/12/28 02:11:20;;;;;;;5.35;3.67;;;;;;;-6.27;65.91;100219.03;4869393;29;20037;-62
2021/12/28 02:13:46;;;;;;;6.57;4.30;;;;;;;-6.20;66.51;100213.53;4868275;29;20049;-61
2021/12/28 02:16:12;;;;;;;5.82;4.30;;;;;;;-6.36;65.60;100221.06;4869687;29;20115;-61
2021/12/28 02:18:38;;;;;;;5.45;3.85;;;;;;;-6.37;65.26;100204.19;4869088;29;20060;-61
2021/12/28 02:21:06;;;;;;;5.38;4.10;;;;;;;-6.47;65.21;100200.31;4869552;29;20418;-61
2021/12/28 02:23:33;;;;;;;5.53;3.75;;;;;;;-6.32;65.68;100213.75;4873421;29;20323;-61
2021/12/28 02:25:58;;;;;;;5.63;3.70;;;;;;;-6.35;65.27;100220.28;4873043;29;20040;-61
2021/12/28 02:28:25;;;;;;;5.22;3.60;;;;;;;-6.27;65.65;100224.97;4872471;29;20046;-60
2021/12/28 02:30:53;;;;;;;5.68;4.00;;;;;;;-6.79;65.37;100154.06;4873127;29;20034;-60
2021/12/28 02:33:23;;;;;;;6.80;4.20;;;;;;;-6.29;65.93;100231.53;4872901;29;20037;-61
2021/12/28 02:35:49;;;;;;;6.68;4.75;;;;;;;-6.28;66.27;100229.91;4872441;29;20056;-62
2021/12/28 02:38:14;;;;;;;5.38;3.97;;;;;;;-6.31;65.07;100227.22;4858879;29;20317;-62
2021/12/28 02:40:43;;;;;;;5.57;3.90;;;;;;;-6.44;65.20;100254.25;4856345;29;20060;-62
2021/12/28 02:43:12;;;;;;;6.57;4.53;;;;;;;-6.42;64.77;100247.63;4872951;29;20085;-62
2021/12/28 02:45:47;;;;;;;6.53;4.47;;;;;;;-6.39;65.99;100248.59;4872772;29;20053;-62
2021/12/28 02:48:12;;;;;;;5.88;4.13;;;;;;;-6.45;65.32;100224.78;4872855;29;20142;-61
2021/12/28 02:50:42;;;;;;;7.90;4.35;;;;;;;-6.74;65.28;100179.50;4857146;29;20029;-61
2021/12/28 02:53:09;;;;;;;8.02;4.78;;;;;;;-6.46;66.81;100233.13;4872751;29;20070;-61
2021/12/28 02:55:36;;;;;;;5.78;4.07;;;;;;;-6.89;65.68;100182.03;4872812;29;20026;-62
2021/12/28 02:58:12;;;;;;;5.88;4.15;;;;;;;-7.03;66.35;100172.03;4871729;29;20083;-62
2021/12/28 03:00:46;;;;;;;8.38;4.88;;;;;;;-6.68;66.80;100240.25;4856454;29;20032;-62
2021/12/28 03:03:15;;;;;;;5.93;4.20;;;;;;;-7.02;66.05;100173.78;4872400;29;20124;-62
2021/12/28 03:05:43;;;;;;;7.15;4.43;;;;;;;-6.56;68.18;100251.03;4871723;29;20035;-61
2021/12/28 03:08:09;;;;;;;6.80;4.57;;;;;;;-6.61;67.67;100243.22;4872310;29;20033;-60
2021/12/28 03:10:36;;;;;;;9.43;5.05;;;;;;;-6.64;67.13;100238.03;4872408;29;20405;-61
2021/12/28 03:13:03;;;;;;;6.82;4.72;;;;;;;-6.69;67.33;100236.88;4872372;29;20060;-62
2021/12/28 03:15:29;;;;;;;6.80;4.78;;;;;;;-6.66;68.04;100239.56;4871619;29;20520;-61
2021/12/28 03:17:54;;;;;;;8.25;5.45;;;;;;;-6.66;66.88;100248.78;4872291;29;20037;-60
2021/12/28 03:20:20;;;;;;;8.48;5.30;;;;;;;-6.66;67.34;100249.66;4872001;29;20048;-61
2021/12/28 03:22:46;;;;;;;9.95;5.50;;;;;;;-6.70;68.63;100246.88;4871876;29;20090;-61
2021/12/28 03:25:13;;;;;;;8.90;5.13;;;;;;;-6.66;68.58;100258.88;4871110;29;20025;-60
2021/12/28 03:27:40;;;;;;;7.65;5.35;;;;;;;-6.68;68.80;100253.75;4872079;29;20101;-61
2021/12/28 03:30:09;;;;;;;8.45;5.63;;;;;;;-6.96;68.91;100216.91;4855246;29;20033;-60
2021/12/28 03:32:35;;;;;;;9.02;5.88;;;;;;;-6.71;67.75;100253.56;4872119;29;20041;-61
2021/12/28 03:35:03;;;;;;;8.82;5.65;;;;;;;-6.80;67.66;100251.41;4871160;29;20029;-61
2021/12/28 03:37:33;;;;;;;7.70;5.53;;;;;;;-6.76;66.81;100240.69;4872081;29;20036;-61
2021/12/28 03:39:59;;;;;;;6.90;5.25;;;;;;;-6.74;68.95;100250.88;4856080;29;20302;-61
2021/12/28 03:42:25;;;;;;;10.30;6.22;;;;;;;-6.79;68.14;100250.59;4856227;29;20301;-62
2021/12/28 03:44:52;;;;;;;10.02;6.00;;;;;;;-6.84;67.95;100257.03;4870769;29;20040;-61
2021/12/28 03:47:17;;;;;;;11.15;7.20;;;;;;;-6.88;68.91;100252.59;4871582;29;20101;-62
2021/12/28 03:49:43;;;;;;;10.65;6.55;;;;;;;-6.83;69.21;100256.25;4870345;29;20059;-63
2021/12/28 03:52:08;;;;;;;7.88;5.15;;;;;;;-6.90;68.97;100250.78;4870585;29;20402;-62
2021/12/28 03:54:34;;;;;;;9.52;6.00;;;;;;;-6.87;68.36;100250.94;4870700;29;20078;-61
2021/12/28 03:57:02;;;;;;;9.25;6.07;;;;;;;-6.90;69.15;100253.28;4871716;29;20090;-61
2021/12/28 03:59:28;;;;;;;8.80;5.75;;;;;;;-6.87;69.48;100256.84;4864625;29;20056;-62
2021/12/28 04:01:54;;;;;;;9.07;6.13;;;;;;;-6.92;70.10;100250.69;4871618;29;20045;-60
2021/12/28 04:04:19;;;;;;;10.73;6.22;;;;;;;-7.00;69.56;100244.34;4860135;29;20094;-61
2021/12/28 04:06:45;;;;;;;9.93;6.43;;;;;;;-6.97;69.12;100257.97;4870875;29;20121;-61
2021/12/28 04:09:12;;;;;;;11.00;6.68;;;;;;;-6.98;68.66;100260.41;4870531;29;20037;-61
2021/12/28 04:11:39;;;;;;;10.32;5.70;;;;;;;-7.02;68.61;100263.53;4870267;29;20074;-61
2021/12/28 04:14:07;;;;;;;10.05;6.15;;;;;;;-7.46;68.92;100193.06;4870230;29;20025;-61
2021/12/28 04:16:34;;;;;;;9.27;5.72;;;;;;;-7.00;68.79;100267.84;4858772;29;20022;-62
2021/12/28 04:19:03;;;;;;;12.05;6.05;;;;;;;-7.06;69.71;100251.53;4867173;29;20333;-61
2021/12/28 04:21:31;;;;;;;8.63;5.75;;;;;;;-6.98;68.20;100265.44;4870330;29;20037;-61
2021/12/28 04:23:56;;;;;;;9.43;6.07;;;;;;;-7.11;68.56;100262.22;4861719;29;20052;-60
2021/12/28 04:26:24;;;;;;;8.68;5.47;;;;;;;-7.25;68.34;100226.94;4870836;29;20318;-62
2021/12/28 04:28:49;;;;;;;7.90;5.10;;;;;;;-6.92;68.20;100275.00;4854958;29;20078;-62
2021/12/28 04:31:15;;;;;;;7.97;5.25;;;;;;;-6.98;68.50;100275.53;4871000;29;20037;-62
2021/12/28 04:33:41;;;;;;;8.70;5.63;;;;;;;-6.97;68.89;100272.19;4867862;29;20100;-62
2021/12/28 04:36:09;;;;;;;9.40;5.57;;;;;;;-7.08;67.50;100253.09;4870829;29;20092;-63
2021/12/28 04:38:36;;;;;;;9.73;5.68;;;;;;;-6.96;68.31;100279.84;4866366;29;20065;-62
2021/12/28 04:41:02;;;;;;;9.50;5.88;;;;;;;-6.98;69.31;100276.38;4861093;29;20057;-62
2021/12/28 04:43:29;;;;;;;9.18;5.70;;;;;;;-7.03;68.62;100267.69;4870473;29;20048;-63
2021/12/28 04:45:55;;;;;;;9.73;5.85;;;;;;;-7.02;68.80;100274.47;4869361;29;20124;-62
2021/12/28 04:48:20;;;;;;;9.65;5.80;;;;;;;-6.97;69.08;100282.28;4870318;29;20052;-62
2021/12/28 04:50:46;;;;;;;11.38;6.07;;;;;;;-7.01;69.00;100270.28;4870722;29;20314;-62
2021/12/28 04:53:13;;;;;;;9.63;5.95;;;;;;;-7.01;68.74;100277.81;4869469;29;20033;-63
2021/12/28 04:55:41;;;;;;;12.50;5.68;;;;;;;-6.95;69.55;100288.28;4869439;29;20314;-64
2021/12/28 04:58:07;;;;;;;10.48;6.05;;;;;;;-7.04;69.41;100281.06;4870463;29;20037;-63
2021/12/28 05:00:34;;;;;;;10.30;5.45;;;;;;;-6.94;69.13;100285.84;4870110;29;20033;-62
2021/12/28 05:02:59;;;;;;;9.32;5.93;;;;;;;-6.93;68.71;100289.22;4870233;29;20037;-62
2021/12/28 05:05:25;;;;;;;10.93;6.22;;;;;;;-6.94;68.70;100290.00;4868967;29;20218;-62
2021/12/28 05:07:51;;;;;;;8.93;5.72;;;;;;;-6.94;69.40;100297.53;4869458;29;20321;-63
2021/12/28 05:10:17;;;;;;;9.13;5.90;;;;;;;-6.95;69.86;100306.75;4870241;29;20088;-61
2021/12/28 05:12:43;;;;;;;10.23;5.85;;;;;;;-6.94;69.58;100311.03;4870222;29;20041;-62
2021/12/28 05:15:10;;;;;;;8.15;5.60;;;;;;;-6.92;70.02;100311.09;4870187;29;20033;-62
2021/12/28 05:17:36;;;;;;;9.52;5.70;;;;;;;-6.82;69.99;100307.47;4869847;29;20033;-63
2021/12/28 05:20:03;;;;;;;9.18;5.63;;;;;;;-6.81;69.25;100315.13;4870176;29;20160;-62
2021/12/28 05:22:29;;;;;;;8.15;5.55;;;;;;;-6.72;68.96;100322.34;4854516;29;20108;-63
2021/12/28 05:24:55;;;;;;;9.23;6.10;;;;;;;-6.73;69.03;100330.66;4869745;29;20029;-65
2021/12/28 05:27:20;;;;;;;7.82;5.40;;;;;;;-6.68;69.23;100323.38;4863948;29;20021;-63
2021/12/28 05:29:46;;;;;;;10.63;6.50;;;;;;;-6.72;69.40;100318.97;4861195;29;20021;-63
2021/12/28 05:32:11;;;;;;;7.53;5.68;;;;;;;-6.65;70.38;100337.03;4869792;29;20077;-62
2021/12/28 05:34:37;;;;;;;9.70;6.00;;;;;;;-6.55;70.69;100332.53;4852905;29;20052;-63
2021/12/28 05:37:03;;;;;;;8.95;5.82;;;;;;;-6.56;69.52;100325.75;4869965;29;20025;-62
2021/12/28 05:39:29;;;;;;;10.73;6.28;;;;;;;-6.53;69.29;100336.84;4870066;29;20038;-62
2021/12/28 05:41:54;;;;;;;10.35;6.05;;;;;;;-6.45;68.60;100339.84;4868707;29;20148;-62
2021/12/28 05:44:20;;;;;;;10.07;6.05;;;;;;;-6.47;68.48;100334.72;4854119;29;20041;-63
2021/12/28 05:46:46;;;;;;;10.10;5.72;;;;;;;-6.38;68.13;100346.97;4853020;29;20028;-62
2021/12/28 05:49:12;;;;;;;11.25;5.65;;;;;;;-6.51;69.02;100317.66;4869720;29;20048;-61
2021/12/28 05:51:38;;;;;;;9.27;5.75;;;;;;;-6.30;67.75;100343.22;4869361;29;20030;-64
2021/12/28 05:54:04;;;;;;;9.38;5.80;;;;;;;-6.27;68.63;100338.34;4869885;29;20489;-64
2021/12/28 05:56:29;;;;;;;9.10;5.80;;;;;;;-6.27;69.22;100345.03;4871116;29;20207;-62
2021/12/28 05:58:55;;;;;;;10.77;6.65;;;;;;;-6.27;69.53;100334.94;4859285;29;20025;-61
2021/12/28 06:01:20;;;;;;;7.88;4.75;;;;;;;-6.21;68.45;100350.44;4875355;29;20033;-61
2021/12/28 06:03:46;;;;;;;8.20;5.07;;;;;;;-6.19;69.85;100353.91;4875835;29;20135;-61
2021/12/28 06:06:12;;;;;;;10.40;5.63;;;;;;;-6.22;68.09;100355.41;4874682;29;20066;-61
2021/12/28 06:08:37;;;;;;;10.48;6.05;;;;;;;-6.30;68.70;100349.91;4874920;29;20057;-62
2021/12/28 06:11:05;;;;;;;9.52;5.97;;;;;;;-6.44;68.54;100312.19;4875343;29;20030;-62
2021/12/28 06:13:31;;;;;;;10.15;5.57;;;;;;;-6.18;69.34;100352.28;4875537;29;20361;-63
2021/12/28 06:15:57;;;;;;;8.07;5.15;;;;;;;-6.18;69.78;100350.59;4874591;29;20073;-61
2021/12/28 06:18:23;;;;;;;8.63;5.68;;;;;;;-6.08;68.07;100352.00;4859637;29;20040;-60
2021/12/28 06:20:48;;;;;;;8.75;5.45;;;;;;;-6.14;68.62;100352.53;4875430;29;20033;-61
2021/12/28 06:23:14;;;;;;;12.18;6.65;;;;;;;-6.04;68.21;100353.03;4875700;29;20033;-61
2021/12/28 06:25:40;;;;;;;11.23;6.82;;;;;;;-6.12;69.10;100355.13;4857471;29;20025;-62
2021/12/28 06:28:06;;;;;;;11.95;5.80;;;;;;;-6.05;69.58;100353.81;4858670;29;20041;-62
2021/12/28 06:30:33;;;;;;;10.13;6.38;;;;;;;-6.03;69.80;100352.25;4874485;29;20025;-62
2021/12/28 06:32:59;;;;;;;10.15;5.93;;;;;;;-5.95;67.79;100359.41;4875409;29;20298;-63
2021/12/28 06:35:25;;;;;;;9.95;6.22;;;;;;;-6.30;69.22;100309.59;4875482;29;20045;-62
2021/12/28 06:37:51;;;;;;;10.65;6.50;;;;;;;-5.93;68.34;100360.38;4859882;29;20214;-62
2021/12/28 06:40:16;;;;;;;13.13;6.35;;;;;;;-5.92;67.62;100353.69;4875369;29;20028;-62
2021/12/28 06:42:42;;;;;;;11.65;6.78;;;;;;;-5.93;68.54;100364.53;4875413;29;20032;-61
2021/12/28 06:45:09;;;;;;;11.43;6.32;;;;;;;-5.95;67.33;100351.84;4874277;29;20074;-63
2021/12/28 06:47:34;;;;;;;11.00;6.22;;;;;;;-5.94;68.50;100358.63;4875305;29;20030;-63
2021/12/28 06:50:00;;;;;;;10.88;7.18;;;;;;;-5.91;68.65;100358.81;4858754;29;20029;-62
2021/12/28 06:52:25;;;;;;;11.25;5.97;;;;;;;-5.97;67.72;100355.94;4873570;29;20030;-62
2021/12/28 06:54:51;;;;;;;8.52;6.18;;;;;;;-5.90;68.33;100365.59;4874108;29;20033;-61
2021/12/28 06:57:17;;;;;;;13.75;6.57;;;;;;;-5.91;68.04;100378.13;4875369;29;20029;-62
2021/12/28 06:59:45;;;;;;;9.60;6.57;;;;;;;-5.98;69.54;100363.47;4865106;29;20065;-62
2021/12/28 07:02:12;;;;;;;10.82;6.68;;;;;;;-5.95;68.88;100368.66;4868566;29;20038;-62
2021/12/28 07:04:38;;;;;;;11.77;7.05;;;;;;;-5.97;68.14;100375.28;4874895;29;20056;-60
2021/12/28 07:07:05;;;;;;;13.00;7.25;;;;;;;-6.29;68.71;100326.44;4874050;29;20078;-62
2021/12/28 07:09:32;;;;;;;10.15;6.68;;;;;;;-6.03;69.94;100390.91;4871463;29;20037;-62
2021/12/28 07:11:58;;;;;;;14.50;7.22;;;;;;;-5.96;69.47;100397.16;4854627;29;20060;-62
2021/12/28 07:14:24;;;;;;;12.23;6.57;;;;;;;-6.00;67.87;100380.16;4855083;29;20026;-62
2021/12/28 07:16:49;;;;;;;13.75;7.47;;;;;;;-6.07;68.75;100391.53;4855502;29;20055;-61
2021/12/28 07:19:15;;;;;;;11.65;7.38;;;;;;;-6.10;69.43;100376.22;4872032;29;20045;-63
2021/12/28 07:21:41;;;;;;;13.52;7.45;;;;;;;-6.02;68.87;100399.38;4872144;29;20229;-62
2021/12/28 07:24:09;;;;;;;12.15;7.85;;;;;;;-6.02;69.13;100409.47;4856589;29;20105;-62
2021/12/28 07:26:35;;;;;;;13.93;8.18;;;;;;;-6.02;68.47;100407.78;4855874;29;20053;-62
2021/12/28 07:29:01;;;;;;;13.65;8.15;;;;;;;-6.01;69.83;100412.06;4854450;29;20033;-62
2021/12/28 07:31:27;;;;;;;22.77;8.13;;;;;;;-6.02;69.61;100410.31;4866203;29;20068;-61
2021/12/28 07:33:53;;;;;;;13.48;8.50;;;;;;;-5.97;70.14;100410.56;4865717;29;20072;-62
2021/12/28 07:36:19;;;;;;;15.98;8.30;;;;;;;-6.02;69.83;100397.72;4866182;29;20034;-62
2021/12/28 07:38:45;;;;;;;14.77;8.30;;;;;;;-5.94;70.52;100416.63;4855489;29;20085;-62
2021/12/28 07:41:10;;;;;;;15.02;8.45;;;;;;;-5.91;69.52;100419.31;4871790;29;20053;-63
2021/12/28 07:43:37;;;;;;;14.18;8.68;;;;;;;-5.96;70.81;100404.72;4871431;29;20053;-62
2021/12/28 07:46:03;;;;;;;15.77;9.30;;;;;;;-5.91;68.88;100414.28;4855829;29;20029;-62
2021/12/28 07:48:28;;;;;;;16.48;9.07;;;;;;;-5.86;68.21;100414.53;4871578;29;20032;-63
2021/12/28 07:50:54;;;;;;;14.77;8.95;;;;;;;-5.84;69.42;100418.03;4870305;29;20042;-62
2021/12/28 07:53:19;;;;;;;14.82;8.50;;;;;;;-5.83;69.50;100413.84;4858168;29;20037;-62
2021/12/28 07:55:45;;;;;;;14.55;9.23;;;;;;;-5.85;70.05;100413.75;4871267;29;20298;-61
2021/12/28 07:58:11;;;;;;;17.95;9.98;;;;;;;-5.78;69.35;100418.34;4870582;29;20037;-63
2021/12/28 08:00:36;;;;;;;18.33;9.32;;;;;;;-5.81;69.67;100427.44;4854912;29;20049;-63
2021/12/28 08:03:04;;;;;;;15.43;8.93;;;;;;;-5.81;69.37;100403.06;4871493;29;20045;-62
2021/12/28 08:05:31;;;;;;;13.30;8.35;;;;;;;-5.66;69.67;100414.78;4870436;29;20317;-61
2021/12/28 08:07:58;;;;;;;13.32;7.78;;;;;;;-5.78;68.21;100408.28;4870743;29;20030;-63
2021/12/28 08:10:23;;;;;;;16.77;8.27;;;;;;;-5.72;68.69;100422.88;4871002;29;20068;-62
2021/12/28 08:12:52;;;;;;;11.07;7.75;;;;;;;-5.64;68.99;100419.13;4860663;29;20041;-62
2021/12/28 08:15:18;;;;;;;12.95;6.80;;;;;;;-5.54;67.87;100420.53;4866348;29;20094;-62
2021/12/28 08:17:44;;;;;;;10.43;6.90;;;;;;;-5.51;69.28;100408.06;4868480;29;20112;-62
2021/12/28 08:20:11;;;;;;;12.48;7.35;;;;;;;-5.49;68.04;100405.63;4839711;29;20036;-62
2021/12/28 08:22:39;;;;;;;10.45;6.80;;;;;;;-5.58;69.27;100390.84;4871043;29;20056;-62
2021/12/28 08:25:06;;;;;;;12.82;7.45;;;;;;;-5.50;68.25;100408.91;4871100;29;20056;-64
2021/12/28 08:27:32;;;;;;;10.88;6.57;;;;;;;-5.46;67.40;100416.75;4853670;29;20221;-62
2021/12/28 08:29:58;;;;;;;11.60;6.43;;;;;;;-5.39;68.15;100416.31;4870474;29;20094;-61
2021/12/28 08:32:23;;;;;;;11.13;6.30;;;;;;;-5.45;68.86;100412.56;4870981;29;20029;-62
2021/12/28 08:34:49;;;;;;;11.13;6.50;;;;;;;-5.43;67.75;100419.44;4867847;29;20033;-63
2021/12/28 08:37:15;;;;;;;10.43;7.00;;;;;;;-5.44;67.33;100414.31;4864403;29;20263;-62
2021/12/28 08:39:41;;;;;;;12.40;7.60;;;;;;;-5.39;67.90;100406.22;4861856;29;20029;-62
2021/12/28 08:42:07;;;;;;;11.05;6.95;;;;;;;-5.44;66.72;100415.19;4867983;29;20133;-62
2021/12/28 08:44:33;;;;;;;12.70;7.47;;;;;;;-5.52;67.91;100418.06;4869111;29;20075;-62
2021/12/28 08:46:58;;;;;;;12.00;7.45;;;;;;;-5.49;68.09;100426.66;4869996;29;20336;-62
2021/12/28 08:49:26;;;;;;;14.40;7.78;;;;;;;-5.38;67.11;100423.06;4851882;29;20025;-61
2021/12/28 08:51:52;;;;;;;14.77;7.75;;;;;;;-5.23;67.75;100424.69;4863632;29;20033;-62
2021/12/28 08:54:18;;;;;;;14.40;8.52;;;;;;;-5.24;67.48;100416.25;4865041;29;20044;-62
2021/12/28 08:56:44;;;;;;;14.00;7.57;;;;;;;-5.07;68.55;100417.16;4863042;29;20394;-62
2021/12/28 08:59:10;;;;;;;14.10;7.78;;;;;;;-4.82;66.61;100417.59;4864168;29;20033;-62
2021/12/28 09:01:36;;;;;;;13.82;8.07;;;;;;;-4.66;67.40;100407.47;4864629;29;20277;-63
2021/12/28 09:04:02;;;;;;;14.07;7.55;;;;;;;-4.62;65.17;100411.91;4866446;29;20067;-62
2021/12/28 09:06:27;;;;;;;14.57;8.45;;;;;;;-4.56;65.89;100413.88;4864582;29;20097;-62
2021/12/28 09:08:53;;;;;;;13.48;8.32;;;;;;;-4.55;66.13;100416.47;4853365;29;20207;-63
2021/12/28 09:11:19;;;;;;;13.68;8.05;;;;;;;-4.51;65.70;100404.88;4869158;29;20027;-63
2021/12/28 09:13:45;;;;;;;12.73;8.10;;;;;;;-4.14;66.22;100416.84;4870122;29;20042;-63
2021/12/28 09:16:10;;;;;;;13.77;8.15;;;;;;;-3.77;64.07;100416.09;4869937;29;20211;-62
2021/12/28 09:18:37;;;;;;;12.00;7.32;;;;;;;-4.03;63.31;100366.78;4852582;29;20080;-61
2021/12/28 09:21:03;;;;;;;13.93;7.63;;;;;;;-3.54;62.93;100421.41;4869994;29;20344;-62
2021/12/28 09:23:29;;;;;;;12.20;6.85;;;;;;;-3.48;62.78;100424.22;4870213;29;20037;-62
2021/12/28 09:25:54;;;;;;;11.70;7.25;;;;;;;-3.58;62.97;100417.84;4869627;29;20045;-62
2021/12/28 09:28:21;;;;;;;12.05;7.18;;;;;;;-3.71;62.45;100421.44;4869671;29;20251;-63
2021/12/28 09:30:46;;;;;;;11.60;6.88;;;;;;;-3.87;63.72;100426.59;4869287;29;20029;-63
2021/12/28 09:33:12;;;;;;;9.77;6.53;;;;;;;-3.94;63.31;100432.13;4853523;29;20108;-61
2021/12/28 09:35:38;;;;;;;10.98;6.65;;;;;;;-3.96;64.72;100438.75;4854537;29;20073;-62
2021/12/28 09:38:05;;;;;;;12.30;6.13;;;;;;;-4.07;63.52;100436.56;4868982;29;20021;-61
2021/12/28 09:40:32;;;;;;;10.07;6.50;;;;;;;-4.20;62.38;100430.03;4868712;29;20046;-63
2021/12/28 09:42:58;;;;;;;9.95;6.28;;;;;;;-4.16;63.30;100429.41;4853392;29;20030;-62
2021/12/28 09:45:27;;;;;;;9.93;6.43;;;;;;;-4.12;64.00;100424.50;4869013;29;20068;-62
2021/12/28 09:47:54;;;;;;;10.82;6.05;;;;;;;-4.40;64.05;100413.88;4868831;29;20554;-61
2021/12/28 09:50:20;;;;;;;10.52;6.22;;;;;;;-4.24;62.99;100432.34;4852427;29;20053;-63
2021/12/28 09:52:48;;;;;;;10.10;6.00;;;;;;;-4.42;63.23;100417.09;4868186;29;20045;-62
2021/12/28 09:55:15;;;;;;;13.45;6.68;;;;;;;-4.62;62.97;100379.06;4868459;29;20037;-62
2021/12/28 09:57:41;;;;;;;10.85;6.35;;;;;;;-4.43;64.34;100428.00;4868573;29;20207;-61
2021/12/28 10:00:08;;;;;;;11.20;6.28;;;;;;;-4.42;64.00;100423.03;4867175;29;20060;-62
2021/12/28 10:02:36;;;;;;;10.88;6.18;;;;;;;-4.42;63.53;100440.72;4863947;29;20025;-62
2021/12/28 10:05:07;;;;;;;10.07;5.85;;;;;;;-4.51;64.57;100425.09;4852788;29;20035;-61
2021/12/28 10:07:36;;;;;;;10.35;5.43;;;;;;;-4.40;63.95;100441.69;4868031;29;20030;-61
2021/12/28 10:10:06;;;;;;;10.48;6.40;;;;;;;-4.52;64.20;100444.47;4866921;29;20330;-61
2021/12/28 10:12:37;;;;;;;10.32;5.95;;;;;;;-4.57;63.79;100409.63;4868382;29;20042;-63
2021/12/28 10:15:09;;;;;;;8.90;5.70;;;;;;;-4.84;63.23;100379.63;4868321;29;20040;-62
2021/12/28 10:17:35;;;;;;;6.82;5.22;;;;;;;-4.46;63.68;100448.97;4869128;29;20374;-62
2021/12/28 10:20:07;;;;;;;8.68;5.93;;;;;;;-4.88;64.02;100392.88;4866751;29;20287;-63
2021/12/28 10:22:42;;;;;;;8.82;5.65;;;;;;;-4.44;65.32;100460.00;4862555;29;20034;-63
2021/12/28 10:25:12;;;;;;;10.70;6.18;;;;;;;-4.71;64.12;100401.34;4865731;29;20029;-61
2021/12/28 10:27:44;;;;;;;9.93;6.20;;;;;;;-4.78;63.55;100391.69;4850005;29;20037;-65
2021/12/28 10:30:21;;;;;;;;;;;;;;;-4.48;64.24;100463.16;4862147;29;20192;-64
2021/12/28 10:32:50;;;;;;;9.88;5.75;;;;;;;-4.86;62.93;100399.75;4858806;29;20197;-62
2021/12/28 10:35:20;;;;;;;10.02;5.85;;;;;;;-4.55;62.72;100453.53;4863920;29;20073;-63
2021/12/28 10:37:54;;;;;;;7.10;5.40;;;;;;;-4.74;63.48;100429.84;4853126;29;20034;-62
2021/12/28 10:40:24;;;;;;;8.48;5.60;;;;;;;-4.44;63.54;100474.31;4866731;29;20044;-61
2021/12/28 10:42:50;;;;;;;10.65;6.40;;;;;;;-4.44;64.25;100466.72;4859982;29;20841;-60
2021/12/28 10:45:23;;;;;;;9.38;6.13;;;;;;;-4.60;63.61;100491.19;4855585;29;20025;-60
2021/12/28 10:47:51;;;;;;;10.55;6.53;;;;;;;-4.73;64.29;100446.72;4869900;29;20104;-61
2021/12/28 10:50:35;;;;;;;8.68;5.90;;;;;;;-4.89;65.04;100399.59;4865199;29;20223;-62
2021/12/28 10:53:07;;;;;;;10.55;6.60;;;;;;;-4.54;63.87;100453.59;4867810;29;20029;-62
2021/12/28 10:55:34;;;;;;;8.85;5.82;;;;;;;-4.54;62.43;100473.81;4872627;29;20053;-60
2021/12/28 10:57:59;;;;;;;12.23;5.93;;;;;;;-4.51;62.69;100475.66;4871370;29;20399;-61
2021/12/28 11:00:36;;;;;;;10.10;6.43;;;;;;;-4.42;62.57;100462.59;4853272;29;20042;-62
2021/12/28 11:03:16;;;;;;;7.07;5.07;;;;;;;-4.42;62.70;100470.19;4867888;29;20449;-62
2021/12/28 11:05:50;;;;;;;12.75;6.43;;;;;;;-4.78;61.91;100395.09;4866970;29;20036;-61
2021/12/28 11:08:16;;;;;;;8.60;5.45;;;;;;;-4.34;62.40;100466.41;4868787;29;20116;-60
2021/12/28 11:10:49;;;;;;;8.38;5.40;;;;;;;-4.46;62.24;100443.91;4868974;29;20357;-61
2021/12/28 11:13:19;;;;;;;10.32;5.55;;;;;;;-4.57;61.76;100430.72;4866799;29;20030;-61
2021/12/28 11:15:46;;;;;;;7.85;5.32;;;;;;;-4.32;62.91;100467.34;4872068;29;20154;-63
2021/12/28 11:18:19;;;;;;;8.40;5.70;;;;;;;-4.29;59.92;100466.63;4869660;29;20341;-63
2021/12/28 11:20:46;;;;;;;11.05;6.07;;;;;;;-4.26;62.09;100466.78;4868722;29;20456;-62